createdAt,value
2023-03-27T00:01:38.886Z,99812.38
2023-03-27T00:03:42.648Z,99813.28
2023-03-27T00:05:45.880Z,99814.84
2023-03-27T00:07:49.514Z,99830.97
2023-03-27T00:09:53.421Z,99831.06
2023-03-27T00:11:56.299Z,99841.38
2023-03-27T00:13:59.170Z,99836.28
2023-03-27T00:16:05.256Z,99853.38
2023-03-27T00:18:08.346Z,99851.53
2023-03-27T00:20:11.396Z,99859.19
2023-03-27T00:22:14.135Z,99865.13
2023-03-27T00:24:17.252Z,99861.59
2023-03-27T00:26:21.436Z,99871.00
2023-03-27T00:28:27.144Z,99881.25
2023-03-27T00:30:31.840Z,99890.72
2023-03-27T00:32:36.255Z,99890.69
2023-03-27T00:34:39.046Z,99895.78
2023-03-27T00:36:43.616Z,99903.72
2023-03-27T00:38:46.777Z,99913.91
2023-03-27T00:40:50.743Z,99912.91
2023-03-27T00:42:57.551Z,99927.53
2023-03-27T00:45:00.488Z,99926.53
2023-03-27T00:47:05.080Z,99920.44
2023-03-27T00:49:11.797Z,99921.44
2023-03-27T00:51:15.748Z,99926.50
2023-03-27T00:53:22.639Z,99925.78
2023-03-27T00:55:29.444Z,99931.94
2023-03-27T00:57:32.356Z,99927.44
2023-03-27T00:59:41.350Z,99925.84
2023-03-27T01:01:45.643Z,99930.97
2023-03-27T01:03:50.466Z,99930.81
2023-03-27T01:05:57.007Z,99942.97
2023-03-27T01:08:01.928Z,99951.38
2023-03-27T01:10:08.629Z,99949.63
2023-03-27T01:12:21.490Z,99971.09
2023-03-27T01:14:32.667Z,99964.38
2023-03-27T01:16:42.958Z,99978.94
2023-03-27T01:18:55.752Z,99968.59
2023-03-27T01:21:30.669Z,99977.34
2023-03-27T01:23:59.811Z,99990.41
2023-03-27T01:26:46.920Z,99983.38
2023-03-27T01:28:56.008Z,99995.63
2023-03-27T01:31:06.609Z,100002.28
2023-03-27T01:33:35.123Z,100004.06
2023-03-27T01:35:58.310Z,99995.25
2023-03-27T01:38:25.832Z,100002.13
2023-03-27T01:40:34.043Z,100007.97
2023-03-27T01:42:41.376Z,100018.25
2023-03-27T01:44:49.319Z,100018.19
2023-03-27T01:46:56.593Z,100024.53
2023-03-27T01:49:05.679Z,100030.81
2023-03-27T01:51:14.674Z,100044.31
2023-03-27T01:53:23.903Z,100048.50
2023-03-27T01:55:31.374Z,100051.84
2023-03-27T01:57:49.691Z,100067.94
2023-03-27T01:59:58.625Z,100079.81
2023-03-27T02:02:27.093Z,100081.00
2023-03-27T02:04:38.396Z,100088.50
2023-03-27T02:06:47.027Z,100083.59
2023-03-27T02:08:56.131Z,100079.03
2023-03-27T02:11:01.204Z,100086.16
2023-03-27T02:13:10.049Z,100101.50
2023-03-27T02:15:26.215Z,100092.09
2023-03-27T02:17:35.017Z,100102.97
2023-03-27T02:19:43.407Z,100094.16
2023-03-27T02:21:48.031Z,100116.56
2023-03-27T02:23:51.662Z,100133.19
2023-03-27T02:25:55.105Z,100128.31
2023-03-27T02:28:29.200Z,100136.88
2023-03-27T02:30:41.187Z,100153.06
2023-03-27T02:32:53.633Z,100153.53
2023-03-27T02:35:18.536Z,100168.75
2023-03-27T02:37:32.410Z,100164.09
2023-03-27T02:40:02.075Z,100177.66
2023-03-27T02:42:12.552Z,100186.75
2023-03-27T02:44:30.421Z,100194.19
2023-03-27T02:46:40.493Z,100199.03
2023-03-27T02:48:47.280Z,100202.25
2023-03-27T02:50:55.890Z,100203.91
2023-03-27T02:53:02.898Z,100204.75
2023-03-27T02:55:10.400Z,100207.22
2023-03-27T02:57:18.760Z,100212.81
2023-03-27T02:59:52.257Z,100222.41
2023-03-27T03:01:55.915Z,100236.25
2023-03-27T03:04:04.846Z,100233.31
2023-03-27T03:06:29.987Z,100228.28
2023-03-27T03:08:38.502Z,100237.19
2023-03-27T03:10:46.017Z,100241.44
2023-03-27T03:12:49.366Z,100248.28
2023-03-27T03:14:53.623Z,100248.31
2023-03-27T03:16:56.429Z,100246.72
2023-03-27T03:18:59.306Z,100252.69
2023-03-27T03:21:02.197Z,100272.75
2023-03-27T03:23:05.265Z,100272.66
2023-03-27T03:25:09.540Z,100274.84
2023-03-27T03:27:14.198Z,100282.66
2023-03-27T03:29:36.834Z,100286.34
2023-03-27T03:31:50.189Z,100293.78
2023-03-27T03:33:53.181Z,100304.56
2023-03-27T03:35:58.885Z,100307.03
2023-03-27T03:38:07.424Z,100307.56
2023-03-27T03:40:22.187Z,100321.09
2023-03-27T03:42:30.845Z,100331.56
2023-03-27T03:44:34.516Z,100338.47
2023-03-27T03:46:46.917Z,100358.31
2023-03-27T03:48:59.250Z,100358.63
2023-03-27T03:51:02.333Z,100366.13
2023-03-27T03:53:05.512Z,100374.69
2023-03-27T03:55:11.714Z,100366.56
2023-03-27T03:57:15.015Z,100378.47
2023-03-27T03:59:21.281Z,100384.81
2023-03-27T04:01:42.942Z,100383.41
2023-03-27T04:03:46.266Z,100390.53
2023-03-27T04:05:50.877Z,100392.00
2023-03-27T04:07:53.907Z,100396.53
2023-03-27T04:10:01.486Z,100413.34
2023-03-27T04:12:04.693Z,100419.81
2023-03-27T04:14:24.356Z,100416.31
2023-03-27T04:16:29.669Z,100421.13
2023-03-27T04:18:35.295Z,100428.66
2023-03-27T04:20:43.035Z,100438.91
2023-03-27T04:22:53.137Z,100433.75
2023-03-27T04:24:57.284Z,100441.25
2023-03-27T04:27:01.715Z,100445.16
2023-03-27T04:29:14.878Z,100449.28
2023-03-27T04:31:35.917Z,100459.28
2023-03-27T04:34:02.973Z,100463.06
2023-03-27T04:36:25.491Z,100466.94
2023-03-27T04:38:45.624Z,100473.16
2023-03-27T04:40:51.581Z,100472.38
2023-03-27T04:42:55.876Z,100481.59
2023-03-27T04:44:58.956Z,100490.16
2023-03-27T04:47:02.329Z,100488.44
2023-03-27T04:49:06.016Z,100501.88
2023-03-27T04:51:32.516Z,100502.06
2023-03-27T04:53:37.781Z,100499.19
2023-03-27T04:55:43.135Z,100511.25
2023-03-27T04:57:46.995Z,100520.97
2023-03-27T04:59:50.213Z,100517.53
2023-03-27T05:02:13.257Z,100516.34
2023-03-27T05:04:26.388Z,100530.88
2023-03-27T05:06:49.260Z,100527.31
2023-03-27T05:08:54.071Z,100533.59
2023-03-27T05:11:08.706Z,100543.03
2023-03-27T05:13:16.956Z,100542.53
2023-03-27T05:15:21.768Z,100551.47
2023-03-27T05:17:25.797Z,100563.78
2023-03-27T05:19:29.176Z,100562.63
2023-03-27T05:21:35.357Z,100560.69
2023-03-27T05:23:38.840Z,100574.03
2023-03-27T05:25:45.294Z,100576.66
2023-03-27T05:28:11.231Z,100586.81
2023-03-27T05:30:15.884Z,100591.81
2023-03-27T05:32:18.839Z,100598.59
2023-03-27T05:34:27.085Z,100602.75
2023-03-27T05:36:31.526Z,100620.72
2023-03-27T05:38:34.691Z,100610.91
2023-03-27T05:40:47.984Z,100624.31
2023-03-27T05:42:54.822Z,100617.69
2023-03-27T05:45:00.002Z,100621.56
2023-03-27T05:47:03.917Z,100627.50
2023-03-27T05:49:08.034Z,100636.63
2023-03-27T05:51:10.855Z,100637.06
2023-03-27T05:53:15.664Z,100639.50
2023-03-27T05:56:03.029Z,100647.09
2023-03-27T05:58:14.336Z,100651.94
2023-03-27T06:00:25.003Z,100655.19
2023-03-27T06:02:29.845Z,100657.22
2023-03-27T06:04:36.150Z,100666.66
2023-03-27T06:06:46.298Z,100668.50
2023-03-27T06:08:49.734Z,100674.63
2023-03-27T06:10:52.625Z,100682.94
2023-03-27T06:13:09.964Z,100685.59
2023-03-27T06:15:25.826Z,100697.16
2023-03-27T06:18:04.394Z,100705.09
2023-03-27T06:20:15.210Z,100715.44
2023-03-27T06:22:25.111Z,100722.00
2023-03-27T06:24:27.984Z,100719.78
2023-03-27T06:26:31.022Z,100730.44
2023-03-27T06:28:39.155Z,100735.22
2023-03-27T06:30:43.627Z,100737.66
2023-03-27T06:33:21.503Z,100748.69
2023-03-27T06:35:27.210Z,100756.72
2023-03-27T06:37:36.940Z,100752.00
2023-03-27T06:39:40.326Z,100754.03
2023-03-27T06:41:43.329Z,100753.00
2023-03-27T06:44:07.010Z,100762.50
2023-03-27T06:46:27.569Z,100756.56
2023-03-27T06:48:51.989Z,100773.66
2023-03-27T06:50:56.064Z,100775.63
2023-03-27T06:52:59.893Z,100773.00
2023-03-27T06:55:15.314Z,100771.31
2023-03-27T06:57:26.398Z,100792.25
2023-03-27T06:59:32.854Z,100786.53
2023-03-27T07:01:39.702Z,100788.63
2023-03-27T07:04:01.081Z,100797.66
2023-03-27T07:06:22.233Z,100800.16
2023-03-27T07:08:33.246Z,100808.75
2023-03-27T07:10:36.606Z,100817.66
2023-03-27T07:12:40.058Z,100818.91
2023-03-27T07:14:42.929Z,100815.00
2023-03-27T07:16:47.328Z,100823.97
2023-03-27T07:18:50.812Z,100835.00
2023-03-27T07:20:53.687Z,100839.91
2023-03-27T07:23:00.650Z,100838.56
2023-03-27T07:25:37.093Z,100851.56
2023-03-27T07:27:42.644Z,100860.59
2023-03-27T07:29:45.945Z,100872.91
2023-03-27T07:31:57.919Z,100856.22
2023-03-27T07:34:24.089Z,100872.13
2023-03-27T07:36:45.404Z,100867.56
2023-03-27T07:38:48.221Z,100884.72
2023-03-27T07:41:06.159Z,100877.81
2023-03-27T07:43:35.268Z,100888.50
2023-03-27T07:45:38.919Z,100890.44
2023-03-27T07:47:44.453Z,100898.94
2023-03-27T07:49:48.094Z,100896.59
2023-03-27T07:51:56.375Z,100903.94
2023-03-27T07:54:01.209Z,100896.94
2023-03-27T07:56:10.484Z,100902.28
2023-03-27T07:58:14.227Z,100904.63
2023-03-27T08:00:22.739Z,100919.94
2023-03-27T08:02:37.720Z,100900.59
2023-03-27T08:04:42.285Z,100905.41
2023-03-27T08:06:46.542Z,100919.13
2023-03-27T08:08:54.834Z,100917.34
2023-03-27T08:11:02.329Z,100921.47
2023-03-27T08:13:12.496Z,100921.25
2023-03-27T08:15:15.826Z,100928.59
2023-03-27T08:17:20.615Z,100928.44
2023-03-27T08:19:25.158Z,100931.41
2023-03-27T08:21:35.311Z,100933.66
2023-03-27T08:23:38.711Z,100933.78
2023-03-27T08:25:44.150Z,100927.09
2023-03-27T08:27:47.025Z,100942.00
2023-03-27T08:29:51.630Z,100930.56
2023-03-27T08:31:54.682Z,100939.22
2023-03-27T08:33:58.164Z,100939.88
2023-03-27T08:36:04.732Z,100948.25
2023-03-27T08:38:23.743Z,100944.28
2023-03-27T08:40:59.891Z,100950.19
2023-03-27T08:43:14.710Z,100953.94
2023-03-27T08:45:24.691Z,100954.13
2023-03-27T08:47:35.096Z,100951.81
2023-03-27T08:49:48.303Z,100955.19
2023-03-27T08:52:07.058Z,100971.31
2023-03-27T08:54:18.117Z,100972.47
2023-03-27T08:56:23.285Z,100960.88
2023-03-27T08:58:28.523Z,100963.34
2023-03-27T09:00:48.155Z,100963.13
2023-03-27T09:03:05.917Z,100966.72
2023-03-27T09:05:15.414Z,100980.72
2023-03-27T09:07:29.005Z,100979.34
2023-03-27T09:09:55.756Z,100979.69
2023-03-27T09:12:09.753Z,100972.75
2023-03-27T09:14:31.071Z,100976.91
2023-03-27T09:16:39.640Z,100980.44
2023-03-27T09:18:48.880Z,100977.84
2023-03-27T09:21:04.085Z,100975.50
2023-03-27T09:23:18.132Z,100973.13
2023-03-27T09:25:48.622Z,100977.31
2023-03-27T09:27:58.506Z,100985.66
2023-03-27T09:30:21.963Z,100989.13
2023-03-27T09:32:33.469Z,100983.72
2023-03-27T09:34:37.521Z,100984.16
2023-03-27T09:36:40.640Z,100981.97
2023-03-27T09:38:50.425Z,100978.84
2023-03-27T09:41:03.756Z,100987.41
2023-03-27T09:43:17.468Z,100986.59
2023-03-27T09:45:21.631Z,100994.06
2023-03-27T09:47:37.538Z,100990.09
2023-03-27T09:49:45.461Z,100980.81
2023-03-27T09:51:54.932Z,100986.38
2023-03-27T09:54:12.765Z,100983.47
2023-03-27T09:56:17.388Z,100988.78
2023-03-27T09:58:32.281Z,100990.84
2023-03-27T10:00:36.877Z,100994.22
2023-03-27T10:02:41.554Z,101002.03
2023-03-27T10:04:59.755Z,100994.03
2023-03-27T10:07:10.178Z,100999.34
2023-03-27T10:09:40.954Z,100994.97
2023-03-27T10:11:49.539Z,100984.78
2023-03-27T10:14:00.810Z,100984.31
2023-03-27T10:16:07.027Z,100983.69
2023-03-27T10:18:27.070Z,100980.97
2023-03-27T10:20:39.139Z,100990.06
2023-03-27T10:22:43.575Z,100986.16
2023-03-27T10:24:48.274Z,100988.75
2023-03-27T10:27:26.207Z,100988.34
2023-03-27T10:29:47.820Z,100997.84
2023-03-27T10:31:53.905Z,101001.16
2023-03-27T10:34:32.427Z,100996.03
2023-03-27T10:36:48.425Z,100992.50
2023-03-27T10:38:58.533Z,100991.16
2023-03-27T10:41:14.548Z,100992.81
2023-03-27T10:43:31.407Z,100993.34
2023-03-27T10:45:42.313Z,100981.34
2023-03-27T10:47:48.540Z,100987.00
2023-03-27T10:50:02.260Z,100984.72
2023-03-27T10:52:22.744Z,100981.66
2023-03-27T10:55:04.502Z,100999.47
2023-03-27T10:57:13.969Z,100989.09
2023-03-27T10:59:38.383Z,100997.13
2023-03-27T11:01:53.209Z,100994.44
2023-03-27T11:04:03.323Z,101000.97
2023-03-27T11:06:13.959Z,101010.19
2023-03-27T11:08:24.227Z,101004.41
2023-03-27T11:10:32.287Z,101011.94
2023-03-27T11:12:37.863Z,101019.66
2023-03-27T11:14:49.286Z,101018.06
2023-03-27T11:16:59.358Z,101022.91
2023-03-27T11:19:41.162Z,101028.28
2023-03-27T11:22:08.559Z,101031.38
2023-03-27T11:24:23.514Z,101042.81
2023-03-27T11:26:36.600Z,101038.06
2023-03-27T11:28:44.762Z,101055.94
2023-03-27T11:30:52.165Z,101055.94
2023-03-27T11:33:09.262Z,101059.63
2023-03-27T11:35:14.940Z,101056.84
2023-03-27T11:37:43.221Z,101046.19
2023-03-27T11:39:53.065Z,101067.03
2023-03-27T11:41:59.720Z,101056.47
2023-03-27T11:44:03.938Z,101046.88
2023-03-27T11:46:39.480Z,101057.59
2023-03-27T11:49:05.488Z,101060.84
2023-03-27T11:51:17.448Z,101065.13
2023-03-27T11:53:33.444Z,101068.56
2023-03-27T11:56:08.802Z,101069.25
2023-03-27T11:58:26.973Z,101065.16
2023-03-27T12:00:36.308Z,101065.53
2023-03-27T12:03:06.810Z,101069.63
2023-03-27T12:05:25.056Z,101071.84
2023-03-27T12:07:49.921Z,101068.75
2023-03-27T12:10:06.238Z,101062.78
2023-03-27T12:12:57.346Z,101069.16
2023-03-27T12:15:15.630Z,101085.78
2023-03-27T12:17:33.743Z,101077.41
2023-03-27T12:20:06.761Z,101073.41
2023-03-27T12:22:24.574Z,101070.72
2023-03-27T12:24:40.598Z,101064.75
2023-03-27T12:27:20.787Z,101060.53
2023-03-27T12:29:49.390Z,101068.22
2023-03-27T12:32:07.778Z,101055.94
2023-03-27T12:34:27.716Z,101055.59
2023-03-27T12:36:38.583Z,101056.75
2023-03-27T12:38:43.626Z,101063.22
2023-03-27T12:40:50.894Z,101083.28
2023-03-27T12:42:55.968Z,101104.56
2023-03-27T12:45:14.649Z,101110.41
2023-03-27T12:47:24.826Z,101121.88
2023-03-27T12:49:48.151Z,101123.63
2023-03-27T12:52:06.108Z,101110.38
2023-03-27T12:54:29.879Z,101112.13
2023-03-27T12:56:39.778Z,101102.16
2023-03-27T12:58:43.818Z,101101.84
2023-03-27T13:01:00.136Z,101106.69
2023-03-27T13:03:56.586Z,101098.69
2023-03-27T13:06:18.686Z,101102.41
2023-03-27T13:08:39.802Z,101103.09
2023-03-27T13:10:58.772Z,101100.50
2023-03-27T13:13:19.989Z,101093.47
2023-03-27T13:15:38.166Z,101078.28
2023-03-27T13:18:01.121Z,101084.72
2023-03-27T13:20:20.577Z,101076.16
2023-03-27T13:23:08.244Z,101084.84
2023-03-27T13:25:31.553Z,101096.50
2023-03-27T13:27:46.509Z,101086.78
2023-03-27T13:29:51.412Z,101075.28
2023-03-27T13:32:03.388Z,101077.53
2023-03-27T13:34:14.900Z,101073.25
2023-03-27T13:36:24.472Z,101065.22
2023-03-27T13:39:13.701Z,101067.75
2023-03-27T13:41:52.073Z,101075.06
2023-03-27T13:44:01.669Z,101071.81
2023-03-27T13:46:19.003Z,101081.38
2023-03-27T13:49:14.141Z,101115.00
2023-03-27T13:51:45.790Z,101102.59
2023-03-27T13:54:22.636Z,101108.28
2023-03-27T13:56:38.931Z,101131.09
2023-03-27T13:59:11.889Z,101134.41
2023-03-27T14:01:28.384Z,101130.06
2023-03-27T14:04:10.287Z,101141.94
2023-03-27T14:06:42.449Z,101135.94
2023-03-27T14:08:53.157Z,101125.66
2023-03-27T14:11:40.552Z,101106.38
2023-03-27T14:13:59.662Z,101105.09
2023-03-27T14:16:35.197Z,101111.69
2023-03-27T14:19:16.618Z,101119.72
2023-03-27T14:21:35.730Z,101126.88
2023-03-27T14:23:50.368Z,101118.69
2023-03-27T14:26:18.555Z,101107.44
2023-03-27T14:28:31.622Z,101119.72
2023-03-27T14:30:45.214Z,101118.16
2023-03-27T14:33:08.278Z,101122.81
2023-03-27T14:35:33.278Z,101115.66
2023-03-27T14:37:41.828Z,101116.81
2023-03-27T14:40:00.690Z,101110.56
2023-03-27T14:42:17.423Z,101109.28
2023-03-27T14:44:25.012Z,101103.88
2023-03-27T14:46:30.241Z,101098.47
2023-03-27T14:48:40.573Z,101103.00
2023-03-27T14:50:46.323Z,101099.19
2023-03-27T14:52:53.096Z,101098.84
2023-03-27T14:54:57.853Z,101098.84
2023-03-27T14:57:09.187Z,101101.25
2023-03-27T14:59:23.692Z,101104.47
2023-03-27T15:01:35.104Z,101097.13
2023-03-27T15:03:39.930Z,101087.94
2023-03-27T15:05:57.373Z,101094.16
2023-03-27T15:08:03.572Z,101084.78
2023-03-27T15:10:32.988Z,101082.44
2023-03-27T15:12:38.475Z,101085.13
2023-03-27T15:14:49.588Z,101080.09
2023-03-27T15:16:58.840Z,101087.63
2023-03-27T15:19:09.833Z,101077.50
2023-03-27T15:21:19.848Z,101089.63
2023-03-27T15:23:28.453Z,101088.09
2023-03-27T15:25:38.001Z,101087.41
2023-03-27T15:27:43.183Z,101083.34
2023-03-27T15:29:50.858Z,101087.47
2023-03-27T15:31:59.671Z,101079.22
2023-03-27T15:34:08.237Z,101086.38
2023-03-27T15:36:26.567Z,101097.78
2023-03-27T15:38:33.069Z,101084.84
2023-03-27T15:40:42.931Z,101085.56
2023-03-27T15:42:47.763Z,101083.09
2023-03-27T15:44:50.519Z,101089.25
2023-03-27T15:46:57.916Z,101093.66
2023-03-27T15:49:20.457Z,101089.31
2023-03-27T15:51:30.860Z,101083.41
2023-03-27T15:53:36.589Z,101084.44
2023-03-27T15:55:42.222Z,101084.03
2023-03-27T15:57:46.324Z,101078.63
2023-03-27T15:59:52.434Z,101082.91
2023-03-27T16:02:04.076Z,101089.34
2023-03-27T16:04:09.758Z,101091.88
2023-03-27T16:06:23.491Z,101095.84
2023-03-27T16:08:32.417Z,101101.28
2023-03-27T16:10:35.487Z,101104.97
2023-03-27T16:12:51.913Z,101107.19
2023-03-27T16:14:58.066Z,101123.22
2023-03-27T16:17:20.478Z,101118.47
2023-03-27T16:19:23.388Z,101114.41
2023-03-27T16:21:28.076Z,101120.94
2023-03-27T16:23:31.139Z,101120.84
2023-03-27T16:25:34.945Z,101113.97
2023-03-27T16:27:39.061Z,101114.63
2023-03-27T16:29:41.985Z,101116.50
2023-03-27T16:31:45.076Z,101117.41
2023-03-27T16:33:49.357Z,101125.31
2023-03-27T16:35:52.475Z,101135.03
2023-03-27T16:37:56.382Z,101136.91
2023-03-27T16:39:59.249Z,101132.47
2023-03-27T16:42:02.077Z,101142.00
2023-03-27T16:44:05.005Z,101145.66
2023-03-27T16:46:08.152Z,101165.19
2023-03-27T16:48:13.284Z,101162.72
2023-03-27T16:50:20.418Z,101171.81
2023-03-27T16:52:23.178Z,101174.44
2023-03-27T16:54:26.340Z,101181.28
2023-03-27T16:56:29.078Z,101189.03
2023-03-27T16:58:31.862Z,101185.91
2023-03-27T17:00:35.081Z,101189.13
2023-03-27T17:02:38.108Z,101198.69
2023-03-27T17:04:43.737Z,101199.78
2023-03-27T17:06:48.038Z,101207.53
2023-03-27T17:08:55.086Z,101204.78
2023-03-27T17:11:03.062Z,101213.28
2023-03-27T17:13:05.936Z,101218.84
2023-03-27T17:15:10.120Z,101221.25
2023-03-27T17:17:12.928Z,101216.47
2023-03-27T17:19:15.847Z,101223.47
2023-03-27T17:21:18.633Z,101226.94
2023-03-27T17:23:23.069Z,101234.66
2023-03-27T17:25:26.311Z,101246.06
2023-03-27T17:27:29.139Z,101248.44
2023-03-27T17:29:31.949Z,101250.97
2023-03-27T17:31:35.296Z,101258.19
2023-03-27T17:33:38.118Z,101251.69
2023-03-27T17:35:41.408Z,101254.59
2023-03-27T17:37:44.232Z,101254.13
2023-03-27T17:39:48.777Z,101263.19
2023-03-27T17:41:51.809Z,101262.25
2023-03-27T17:43:54.563Z,101281.84
2023-03-27T17:45:57.512Z,101288.56
2023-03-27T17:48:00.512Z,101297.34
2023-03-27T17:50:03.350Z,101302.63
2023-03-27T17:52:11.281Z,101316.91
2023-03-27T17:54:14.562Z,101331.00
2023-03-27T17:56:18.688Z,101341.03
2023-03-27T17:58:22.124Z,101338.53
2023-03-27T18:00:26.012Z,101343.81
2023-03-27T18:02:28.892Z,101333.84
2023-03-27T18:04:33.054Z,101338.16
2023-03-27T18:06:36.529Z,101351.94
2023-03-27T18:08:39.430Z,101348.72
2023-03-27T18:10:45.331Z,101356.47
2023-03-27T18:12:49.567Z,101369.47
2023-03-27T18:14:52.393Z,101368.28
2023-03-27T18:16:55.228Z,101360.59
2023-03-27T18:18:58.014Z,101358.09
2023-03-27T18:21:00.904Z,101366.38
2023-03-27T18:23:03.746Z,101361.34
2023-03-27T18:25:08.624Z,101361.34
2023-03-27T18:27:11.237Z,101358.28
2023-03-27T18:29:15.552Z,101368.50
2023-03-27T18:31:18.799Z,101365.63
2023-03-27T18:33:21.669Z,101367.69
2023-03-27T18:35:24.972Z,101370.16
2023-03-27T18:37:28.219Z,101368.69
2023-03-27T18:39:31.482Z,101365.69
2023-03-27T18:41:35.436Z,101374.66
2023-03-27T18:43:38.356Z,101372.81
2023-03-27T18:45:42.719Z,101379.09
2023-03-27T18:47:46.162Z,101388.13
2023-03-27T18:49:48.991Z,101379.84
2023-03-27T18:51:51.863Z,101386.19
2023-03-27T18:53:54.591Z,101393.00
2023-03-27T18:55:58.929Z,101394.69
2023-03-27T18:58:01.902Z,101398.81
2023-03-27T19:00:08.820Z,101400.38
2023-03-27T19:02:14.267Z,101402.28
2023-03-27T19:04:17.490Z,101399.78
2023-03-27T19:06:25.301Z,101401.75
2023-03-27T19:08:28.039Z,101398.47
2023-03-27T19:10:30.833Z,101400.31
2023-03-27T19:12:52.011Z,101406.22
2023-03-27T19:15:34.177Z,101397.25
2023-03-27T19:18:20.108Z,101406.78
2023-03-27T19:20:44.886Z,101412.69
2023-03-27T19:22:56.534Z,101414.19
2023-03-27T19:25:03.710Z,101418.28
2023-03-27T19:27:06.687Z,101411.97
2023-03-27T19:29:26.052Z,101416.84
2023-03-27T19:31:29.072Z,101422.31
2023-03-27T19:33:36.085Z,101432.50
2023-03-27T19:35:41.338Z,101428.78
2023-03-27T19:37:44.137Z,101430.03
2023-03-27T19:39:47.127Z,101430.72
2023-03-27T19:41:49.951Z,101437.78
2023-03-27T19:43:52.785Z,101436.09
2023-03-27T19:46:08.109Z,101439.09
2023-03-27T19:48:18.265Z,101437.41
2023-03-27T19:50:22.624Z,101435.59
2023-03-27T19:52:46.159Z,101439.69
2023-03-27T19:54:54.935Z,101438.69
2023-03-27T19:56:59.898Z,101443.03
2023-03-27T19:59:03.628Z,101436.56
2023-03-27T20:01:06.825Z,101442.38
2023-03-27T20:03:12.850Z,101444.16
2023-03-27T20:05:15.934Z,101443.34
2023-03-27T20:07:20.295Z,101442.75
2023-03-27T20:09:23.095Z,101446.16
2023-03-27T20:11:26.973Z,101449.53
2023-03-27T20:13:29.750Z,101446.16
2023-03-27T20:15:32.562Z,101447.91
2023-03-27T20:17:35.362Z,101457.38
2023-03-27T20:19:38.154Z,101452.13
2023-03-27T20:21:42.334Z,101451.19
2023-03-27T20:23:53.556Z,101453.91
2023-03-27T20:26:02.087Z,101451.75
2023-03-27T20:28:06.968Z,101459.44
2023-03-27T20:30:14.073Z,101459.84
2023-03-27T20:32:17.002Z,101464.84
2023-03-27T20:34:22.405Z,101472.19
2023-03-27T20:36:26.158Z,101469.31
2023-03-27T20:38:31.498Z,101468.78
2023-03-27T20:40:52.761Z,101465.78
2023-03-27T20:43:03.450Z,101470.47
2023-03-27T20:45:07.914Z,101468.84
2023-03-27T20:47:12.328Z,101467.97
2023-03-27T20:51:30.191Z,101480.72
2023-03-27T20:53:39.812Z,101472.16
2023-03-27T20:55:53.405Z,101473.16
2023-03-27T20:58:03.030Z,101472.16
2023-03-27T21:00:08.047Z,101475.50
2023-03-27T21:02:16.677Z,101471.38
2023-03-27T21:04:19.553Z,101473.31
2023-03-27T21:06:22.352Z,101474.09
2023-03-27T21:08:25.685Z,101482.72
2023-03-27T21:10:28.544Z,101474.50
2023-03-27T21:12:33.703Z,101484.50
2023-03-27T21:14:39.983Z,101480.84
2023-03-27T21:16:43.123Z,101475.06
2023-03-27T21:18:46.052Z,101472.91
2023-03-27T21:20:48.852Z,101472.66
2023-03-27T21:22:52.750Z,101479.41
2023-03-27T21:24:55.747Z,101479.09
2023-03-27T21:26:59.971Z,101482.63
2023-03-27T21:29:04.495Z,101484.50
2023-03-27T21:31:08.171Z,101489.09
2023-03-27T21:33:11.474Z,101476.84
2023-03-27T21:35:14.542Z,101485.28
2023-03-27T21:37:17.335Z,101485.53
2023-03-27T21:39:20.602Z,101475.63
2023-03-27T21:41:23.796Z,101484.88
2023-03-27T21:43:26.640Z,101482.47
2023-03-27T21:45:31.641Z,101485.03
2023-03-27T21:47:46.617Z,101479.91
2023-03-27T21:49:50.642Z,101489.41
2023-03-27T21:51:53.518Z,101487.53
2023-03-27T21:53:56.296Z,101491.50
2023-03-27T21:55:59.389Z,101496.75
2023-03-27T21:58:02.451Z,101497.78
2023-03-27T22:00:05.994Z,101490.84
2023-03-27T22:02:16.937Z,101490.94
2023-03-27T22:04:21.664Z,101498.41
2023-03-27T22:06:25.432Z,101499.78
2023-03-27T22:08:28.274Z,101491.22
2023-03-27T22:10:31.655Z,101507.44
2023-03-27T22:12:35.681Z,101498.81
2023-03-27T22:14:38.455Z,101515.09
2023-03-27T22:16:41.629Z,101510.81
2023-03-27T22:18:46.066Z,101512.59
2023-03-27T22:20:49.159Z,101513.00
2023-03-27T22:22:51.993Z,101523.84
2023-03-27T22:24:54.823Z,101530.13
2023-03-27T22:26:57.847Z,101521.13
2023-03-27T22:29:00.692Z,101533.22
2023-03-27T22:31:04.472Z,101528.06
2023-03-27T22:33:07.609Z,101529.47
2023-03-27T22:35:13.169Z,101533.44
2023-03-27T22:37:16.113Z,101537.50
2023-03-27T22:39:18.989Z,101543.38
2023-03-27T22:41:21.808Z,101545.25
2023-03-27T22:43:24.593Z,101548.97
2023-03-27T22:45:27.378Z,101552.44
2023-03-27T22:47:31.407Z,101560.06
2023-03-27T22:49:36.083Z,101560.88
2023-03-27T22:51:40.302Z,101565.31
2023-03-27T22:53:43.088Z,101568.94
2023-03-27T22:55:49.114Z,101572.41
2023-03-27T22:57:51.867Z,101573.59
2023-03-27T22:59:54.810Z,101577.31
2023-03-27T23:01:57.679Z,101585.16
2023-03-27T23:04:00.630Z,101591.75
2023-03-27T23:06:03.587Z,101584.81
2023-03-27T23:08:08.135Z,101590.16
2023-03-27T23:10:11.276Z,101597.81
2023-03-27T23:12:14.048Z,101600.28
2023-03-27T23:14:17.279Z,101603.41
2023-03-27T23:16:20.089Z,101600.56
2023-03-27T23:18:25.310Z,101600.47
2023-03-27T23:20:28.316Z,101605.53
2023-03-27T23:22:31.096Z,101602.13
2023-03-27T23:24:35.277Z,101602.78
2023-03-27T23:26:38.094Z,101601.78
2023-03-27T23:28:42.720Z,101607.72
2023-03-27T23:30:53.376Z,101608.28
2023-03-27T23:32:56.459Z,101607.09
2023-03-27T23:34:59.487Z,101601.50
2023-03-27T23:37:02.296Z,101610.03
2023-03-27T23:39:05.325Z,101610.19
2023-03-27T23:41:11.621Z,101609.41
2023-03-27T23:43:14.420Z,101612.78
2023-03-27T23:45:17.378Z,101612.78
2023-03-27T23:47:20.378Z,101619.69
2023-03-27T23:49:23.158Z,101620.66
2023-03-27T23:51:26.306Z,101619.88
2023-03-27T23:53:29.777Z,101625.63
2023-03-27T23:55:32.570Z,101632.75
2023-03-27T23:57:36.665Z,101635.59
2023-03-27T23:59:39.535Z,101628.03
